Flight Track Log - Related Links

Times and Time Zones

All times are in EDT time to prevent confusion due to time zone crossing. See the N269AM flight status page for this flight to view local times or setup timezone preferences in your user account.

Time Position Orientation Groundspeed Altitude Reporting Facility
EDT Latitude Longitude Course Direction KTS MPH feet Rate Location/Type
Sat 03:57:47 PM 47.5064 -122.2842 151° Southeast 72 83 600  Level Seattle Center
Sat 03:59:19 PM 47.4781 -122.2606 151° Southeast 77 89 1,200 415 Climbing Seattle Center
Sat 04:00:26 PM 47.4567 -122.2461 155° Southeast 72 83 1,700 406 Climbing Seattle Center
Sat 04:01:32 PM 47.4417 -122.2217 132° Southeast 75 86 2,100 416 Climbing Seattle Center
Sat 04:02:07 PM 47.4319 -122.2086 138° Southeast 76 87 2,400 436 Climbing Seattle Center
Sat 04:02:27 PM 47.4278 -122.2031 138° Southeast 75 86 2,500 300 Climbing Seattle Center
Sat 04:03:07 PM 47.4197 -122.1850 123° Southeast 75 86 2,700 393 Climbing Seattle Center
Sat 04:03:28 PM 47.4167 -122.1764 118° Southeast 73 84 2,900 393 Climbing Seattle Center
Sat 04:04:08 PM 47.4078 -122.1603 129° Southeast 75 86 3,100 358 Climbing Seattle Center
Sat 04:04:35 PM 47.4028 -122.1481 121° Southeast 75 86 3,300 393 Climbing Seattle Center
Sat 04:05:09 PM 47.3967 -122.1353 125° Southeast 75 86 3,500 393 Climbing Seattle Center
Sat 04:05:36 PM 47.3883 -122.1267 145° Southeast 75 86 3,700 393 Climbing Seattle Center
Sat 04:06:10 PM 47.3806 -122.1203 151° Southeast 72 83 3,900 300 Climbing Seattle Center
Sat 04:06:36 PM 47.3722 -122.1158 160° South 64 74 4,000 98 Climbing Seattle Center
Sat 04:07:11 PM 47.3628 -122.1075 149° Southeast 68 78 4,000 179 Level Seattle Center
Sat 04:07:43 PM 47.3519 -122.0975 148° Southeast 79 91 4,200 393 Climbing Seattle Center
Sat 04:08:12 PM 47.3422 -122.0911 156° South 76 87 4,400 419 Climbing Seattle Center
Sat 04:08:26 PM 47.3378 -122.0858 141° Southeast 76 87 4,500 295 Climbing Seattle Center
Sat 04:09:13 PM 47.3261 -122.0753 148° Southeast 74 85 4,700 329 Climbing Seattle Center
Sat 04:09:39 PM 47.3183 -122.0706 158° South 67 77 4,900 400 Climbing Seattle Center
Sat 04:10:13 PM 47.3100 -122.0661 160° South 65 75 5,100 295 Climbing Seattle Center
Sat 04:10:40 PM 47.3025 -122.0694 197° South 58 67 5,200 295 Climbing Seattle Center
Sat 04:11:14 PM 47.2947 -122.0725 195° South 60 69 5,400 327 Climbing Seattle Center
Sat 04:11:35 PM 47.2881 -122.0742 190° South 56 64 5,500 197 Climbing Seattle Center
Sat 04:12:15 PM 47.2789 -122.0744 181° South 60 69 5,600 200 Climbing Seattle Center
Sat 04:12:35 PM 47.2703 -122.0742 179° South 59 68 5,700 393 Climbing Seattle Center
Sat 04:13:16 PM 47.2614 -122.0747 182° South 60 69 6,000 295 Climbing Seattle Center
Sat 04:13:36 PM 47.2544 -122.0731 171° South 60 69 6,000 98 Level Seattle Center
Sat 04:14:17 PM 47.2417 -122.0717 176° South 63 72 6,100 218 Climbing Seattle Center
Sat 04:14:31 PM 47.2367 -122.0733 193° South 67 77 6,200 295 Climbing Seattle Center
Sat 04:15:18 PM 47.2247 -122.0722 176° South 63 72 6,400 295 Climbing Seattle Center
Sat 04:15:32 PM 47.2197 -122.0761 208° Southwest 62 71 6,500 176 Climbing Seattle Center
Sat 04:16:26 PM 47.2058 -122.0742 175° South 62 71 6,600 167 Climbing Seattle Center
Sat 04:17:20 PM 47.1922 -122.0761 186° South 61 70 6,800 157 Climbing Seattle Center
Sat 04:18:21 PM 47.1781 -122.0903 214° Southwest 61 70 6,900 99 Climbing Seattle Center
Sat 04:19:21 PM 47.1725 -122.1189 254° West 73 84 7,000 50 Climbing Seattle Center
Sat 04:20:22 PM 47.1550 -122.1344 211° Southwest 73 84 7,000  Level Seattle Center
Sat 04:21:23 PM 47.1431 -122.1517 224° Southwest 71 82 7,000 70 Level Seattle Center
Sat 04:21:48 PM 47.1403 -122.1656 254° West 70 81 7,100  Climbing Seattle Center
Sat 04:22:31 PM 47.1361 -122.1842 252° West 71 82 7,000 -62 Descending Seattle Center
Sat 04:23:25 PM 47.1272 -122.2017 233° Southwest 69 79 7,000 90 Level Seattle Center
Sat 04:23:38 PM 47.1242 -122.2072 231° Southwest 67 77 7,100 98 Climbing Seattle Center
Sat 04:24:26 PM 47.1172 -122.2261 242° Southwest 69 79 7,100  Level Seattle Center
Sat 04:24:39 PM 47.1131 -122.2328 227° Southwest 70 81 7,100  Level Seattle Center
Sat 04:25:27 PM 47.1033 -122.2492 229° Southwest 69 79 7,100  Level Seattle Center
Sat 04:25:39 PM 47.1003 -122.2528 219° Southwest 71 82 7,100 -98 Level Seattle Center
Sat 04:26:28 PM 47.0900 -122.2722 232° Southwest 70 81 7,000 -98 Descending Seattle Center
Sat 04:26:40 PM 47.0864 -122.2767 220° Southwest 73 84 7,000  Level Seattle Center
Sat 04:27:29 PM 47.0753 -122.2908 221° Southwest 71 82 7,000 -98 Level Seattle Center
Sat 04:27:41 PM 47.0719 -122.2978 235° Southwest 70 81 6,900  Descending Seattle Center
Sat 04:28:30 PM 47.0692 -122.3194 259° West 72 83 7,000 52 Climbing Seattle Center
Sat 04:29:36 PM 47.0558 -122.3489 236° Southwest 73 84 7,000  Level Seattle Center
Sat 04:30:32 PM 47.0464 -122.3694 236° Southwest 74 85 7,000 152 Level Seattle Center
Sat 04:30:55 PM 47.0389 -122.3775 216° Southwest 70 81 7,200 197 Climbing Seattle Center
Sat 04:31:33 PM 47.0322 -122.3883 228° Southwest 70 81 7,200  Level Seattle Center
Sat 04:31:50 PM 47.0281 -122.3964 233° Southwest 68 78 7,200 -98 Level Seattle Center
Sat 04:32:34 PM 47.0203 -122.4111 232° Southwest 70 81 7,100 -222 Descending Seattle Center
Sat 04:32:44 PM 47.0172 -122.4153 223° Southwest 70 81 7,000 -500 Descending Seattle Center
Sat 04:33:34 PM 47.0078 -122.4367 237° Southwest 74 85 6,600 -595 Descending Seattle Center
Sat 04:34:35 PM 46.9975 -122.4647 242° Southwest 75 86 5,900 -583 Descending Seattle Center
Sat 04:34:46 PM 46.9944 -122.4733 243° Southwest 77 89 5,900 -197 Level Seattle Center
Sat 04:35:36 PM 46.9842 -122.4861 220° Southwest 69 79 5,700 -200 Descending Seattle Center
Sat 04:35:46 PM 46.9808 -122.4903 220° Southwest 64 74 5,700 -197 Level Seattle Center
Sat 04:36:37 PM 46.9828 -122.5100 278° West 81 93 5,500 -295 Descending Seattle Center
Sat 04:36:47 PM 46.9847 -122.5142 304° West 80 92 5,400 -407 Descending Seattle Center
Sat 04:37:36 PM 46.9847 -122.5403 270° West 81 93 5,100 -268 Descending Seattle Center
Sat 04:38:39 PM 46.9797 -122.5733 258° West 81 93 4,900 -141 Descending Seattle Center
Sat 04:39:01 PM 46.9792 -122.5886 267° West 85 98 4,900 98 Level Seattle Center
Sat 04:39:40 PM 46.9797 -122.6069 273° West 82 94 5,000 60 Climbing Seattle Center
Sat 04:40:41 PM 46.9786 -122.6436 267° West 82 94 5,000 -49 Level Seattle Center
Sat 04:41:42 PM 46.9753 -122.6769 262° West 82 94 4,900 -49 Descending Seattle Center
Sat 04:42:43 PM 46.9736 -122.7111 266° West 83 96 4,900  Level Seattle Center
Sat 04:43:44 PM 46.9717 -122.7428 265° West 82 94 4,900 98 Level Seattle Center
Sat 04:44:45 PM 46.9697 -122.7744 265° West 82 94 5,100 98 Climbing Seattle Center
Sat 04:45:46 PM 46.9714 -122.8072 274° West 81 93 5,100 -98 Level Seattle Center
Sat 04:46:47 PM 46.9536 -122.8200 206° Southwest 68 78 4,900 -49 Descending Seattle Center
Sat 04:47:48 PM 46.9358 -122.8119 163° South 67 77 5,000 49 Climbing Seattle Center
Sat 04:48:49 PM 46.9189 -122.8178 193° South 64 74 5,000  Level Seattle Center
Sat 04:49:50 PM 46.9003 -122.8236 192° South 65 75 5,000 -49 Level Seattle Center
Sat 04:50:51 PM 46.8792 -122.8306 193° South 69 79 4,900 -98 Descending Seattle Center
Sat 04:51:52 PM 46.8594 -122.8336 186° South 69 79 4,800  Descending Seattle Center
Sat 04:52:53 PM 46.8411 -122.8369 187° South 69 79 4,900 98 Climbing Seattle Center
Sat 04:53:54 PM 46.8225 -122.8369 180° South 68 78 5,000 49 Climbing Seattle Center
Sat 04:54:55 PM 46.8025 -122.8369 180° South 70 81 5,000 -49 Level Seattle Center
Sat 04:55:56 PM 46.7797 -122.8386 183° South 72 83 4,900 -98 Descending Seattle Center
Sat 04:56:57 PM 46.7606 -122.8422 187° South 72 83 4,800  Descending Seattle Center
Sat 04:57:58 PM 46.7428 -122.8453 187° South 69 79 4,900 49 Climbing Seattle Center
Sat 04:58:59 PM 46.7258 -122.8475 185° South 68 78 4,900 49 Level Seattle Center
Sat 05:00:00 PM 46.7072 -122.8464 178° South 67 77 5,000 49 Climbing Seattle Center
Sat 05:01:01 PM 46.6878 -122.8472 182° South 68 78 5,000  Level Seattle Center
Sat 05:02:01 PM 46.6675 -122.8464 178° South 70 81 5,000 50 Level Seattle Center
Sat 05:03:02 PM 46.6486 -122.8536 195° South 70 81 5,100 -49 Climbing Seattle Center
Sat 05:04:03 PM 46.6261 -122.8650 199° South 71 82 4,900 -98 Descending Seattle Center
Sat 05:05:04 PM 46.6067 -122.8761 201° Southwest 72 83 4,900  Level Seattle Center
Sat 05:06:05 PM 46.5872 -122.8836 195° South 71 82 4,900  Level Seattle Center
Sat 05:07:06 PM 46.5700 -122.8850 183° South 66 76 4,900 49 Level Seattle Center
Sat 05:08:07 PM 46.5528 -122.8772 163° South 64 74 5,000 49 Climbing Seattle Center
Sat 05:09:08 PM 46.5339 -122.8831 192° South 69 79 5,000  Level Seattle Center
Sat 05:10:08 PM 46.5164 -122.8869 189° South 67 77 5,000  Level Seattle Center
Sat 05:11:09 PM 46.4986 -122.8878 182° South 66 76 5,000  Level Seattle Center
Sat 05:12:10 PM 46.4822 -122.8844 172° South 64 74 5,000 49 Level Seattle Center
Sat 05:13:11 PM 46.4664 -122.8972 209° Southwest 64 74 5,100 98 Climbing Seattle Center
Sat 05:14:12 PM 46.4458 -122.9044 194° South 66 76 5,200  Climbing Seattle Center
Sat 05:15:13 PM 46.4242 -122.9069 185° South 72 83 5,100 -49 Descending Seattle Center
Sat 05:16:14 PM 46.4047 -122.9183 202° Southwest 73 84 5,100  Level Seattle Center
Sat 05:17:14 PM 46.3856 -122.9183 180° South 70 81 5,100  Level Seattle Center
Sat 05:18:15 PM 46.3658 -122.9208 185° South 71 82 5,100  Level Seattle Center
Sat 05:19:16 PM 46.3444 -122.9214 181° South 75 86 5,100  Level Seattle Center
Sat 05:20:17 PM 46.3261 -122.9267 191° South 72 83 5,100 49 Level Seattle Center
Sat 05:21:18 PM 46.3061 -122.9253 177° South 72 83 5,200 49 Climbing Seattle Center
Sat 05:22:19 PM 46.2861 -122.9275 184° South 72 83 5,200  Level Seattle Center
Sat 05:23:20 PM 46.2622 -122.9308 186° South 77 89 5,200  Level Seattle Center
Sat 05:24:20 PM 46.2419 -122.9239 167° South 76 87 5,200 -99 Level Seattle Center
Sat 05:25:21 PM 46.2217 -122.9269 186° South 76 87 5,000 -98 Descending Seattle Center
Sat 05:26:22 PM 46.2008 -122.9297 185° South 74 85 5,000  Level Seattle Center
Sat 05:27:23 PM 46.1811 -122.9322 185° South 73 84 5,000 49 Level Seattle Center
Sat 05:28:24 PM 46.1600 -122.9272 171° South 74 85 5,100 145 Climbing Seattle Center
Sat 05:28:46 PM 46.1517 -122.9192 146° Southeast 84 97 5,200 150 Climbing Seattle Center
Sat 05:29:04 PM 46.1467 -122.9150 150° Southeast 88 101 5,200  Level Seattle Center
Sat 05:29:25 PM 46.1400 -122.9142 175° South 78 90 5,200  Level Seattle Center
Sat 05:30:05 PM 46.1278 -122.9289 220° Southwest 76 87 5,200 -100 Level Seattle Center
Sat 05:30:25 PM 46.1244 -122.9344 229° Southwest 72 83 5,100 100 Descending Seattle Center
Sat 05:31:05 PM 46.1128 -122.9411 202° Southwest 72 83 5,300 197 Climbing Seattle Center
Sat 05:31:26 PM 46.1067 -122.9428 191° South 72 83 5,300 -393 Level Seattle Center
Sat 05:32:06 PM 46.0931 -122.9397 171° South 71 82 4,900 -590 Descending Seattle Center
Sat 05:32:27 PM 46.0861 -122.9356 157° South 71 82 4,700 -98 Descending Seattle Center
Sat 05:33:07 PM 46.0764 -122.9311 162° South 70 81 4,800 197 Climbing Seattle Center
Sat 05:33:28 PM 46.0689 -122.9272 160° South 70 81 4,900 182 Climbing Seattle Center
Sat 05:34:13 PM 46.0558 -122.9269 179° South 64 74 5,000 98 Climbing Seattle Center
Sat 05:34:29 PM 46.0547 -122.9283 221° Southwest 61 70 5,000 109 Level Seattle Center
Sat 05:35:08 PM 46.0433 -122.9289 182° South 60 69 5,100 100 Climbing Seattle Center
Sat 05:35:29 PM 46.0364 -122.9294 183° South 60 69 5,100 -98 Level Seattle Center
Sat 05:36:09 PM 46.0278 -122.9383 216° Southwest 63 72 5,000  Descending Seattle Center
Sat 05:36:30 PM 46.0197 -122.9389 183° South 61 70 5,100 100 Climbing Seattle Center
Sat 05:37:09 PM 46.0061 -122.9378 177° South 68 78 5,100  Level Seattle Center
Sat 05:37:31 PM 46.0008 -122.9397 194° South 66 76 5,100  Level Seattle Center
Sat 05:38:04 PM 45.9911 -122.9500 216° Southwest 74 85 5,100  Level Seattle Center
Sat 05:38:32 PM 45.9803 -122.9450 162° South 74 85 5,100  Level Seattle Center
Sat 05:39:05 PM 45.9708 -122.9458 184° South 76 87 5,100  Level Seattle Center
Sat 05:39:33 PM 45.9603 -122.9467 183° South 75 86 5,100 -100 Level Seattle Center
Sat 05:40:05 PM 45.9497 -122.9483 186° South 71 82 5,000  Descending Seattle Center
Sat 05:40:34 PM 45.9408 -122.9500 187° South 75 86 5,100  Climbing Seattle Center
Sat 05:41:06 PM 45.9306 -122.9497 179° South 67 77 5,000 -100 Descending Seattle Center
Sat 05:41:34 PM 45.9228 -122.9525 194° South 69 79 5,000 98 Level Seattle Center
Sat 05:42:07 PM 45.9133 -122.9506 172° South 67 77 5,100 98 Climbing Seattle Center
Sat 05:42:35 PM 45.9039 -122.9500 178° South 68 78 5,100 -100 Level Seattle Center
Sat 05:43:07 PM 45.8936 -122.9492 177° South 70 81 5,000 -98 Descending Seattle Center
Sat 05:43:36 PM 45.8833 -122.9522 192° South 69 79 5,000 -98 Level Seattle Center
Sat 05:44:08 PM 45.8756 -122.9564 200° South 70 81 4,900 -98 Descending Seattle Center
Sat 05:44:37 PM 45.8661 -122.9606 197° South 68 78 4,900  Level Seattle Center
Sat 05:45:08 PM 45.8575 -122.9639 195° South 61 70 4,900 98 Level Seattle Center
Sat 05:45:38 PM 45.8500 -122.9683 202° Southwest 64 74 5,000 197 Climbing Seattle Center
Sat 05:46:09 PM 45.8422 -122.9731 203° Southwest 58 67 5,100 100 Climbing Seattle Center
Sat 05:46:38 PM 45.8336 -122.9719 175° South 61 70 5,100  Level Seattle Center
Sat 05:47:10 PM 45.8231 -122.9747 190° South 64 74 5,100  Level Seattle Center
Sat 05:47:39 PM 45.8153 -122.9753 183° South 63 72 5,100 -100 Level Seattle Center
Sat 05:48:10 PM 45.8058 -122.9756 181° South 68 78 5,000 -197 Descending Seattle Center
Sat 05:48:40 PM 45.7972 -122.9783 193° South 65 75 4,900  Descending Seattle Center
Sat 05:49:11 PM 45.7897 -122.9819 199° South 58 67 5,000 197 Climbing Seattle Center
Sat 05:49:41 PM 45.7825 -122.9831 186° South 54 62 5,100 100 Climbing Seattle Center
Sat 05:50:11 PM 45.7753 -122.9847 189° South 47 54 5,100  Level Seattle Center
Sat 05:50:42 PM 45.7672 -122.9819 166° South 54 62 5,100  Level Seattle Center
Sat 05:51:12 PM 45.7594 -122.9817 179° South 64 74 5,100 -66 Level Seattle Center
Sat 05:52:13 PM 45.7372 -122.9783 174° South 76 87 5,000 -132 Descending Seattle Center
Sat 05:52:43 PM 45.7278 -122.9778 178° South 71 82 4,900 -100 Descending Seattle Center
Sat 05:53:13 PM 45.7194 -122.9761 172° South 65 75 4,900  Level Seattle Center
Sat 05:53:44 PM 45.7114 -122.9778 188° South 62 71 4,900 98 Level Seattle Center
Sat 05:54:14 PM 45.7039 -122.9856 216° Southwest 53 61 5,000 197 Climbing Seattle Center
Sat 05:54:45 PM 45.6950 -122.9814 162° South 59 68 5,100 100 Climbing Seattle Center
Sat 05:55:14 PM 45.6883 -122.9825 187° South 61 70 5,100  Level Seattle Center
Sat 05:55:46 PM 45.6761 -122.9792 169° South 67 77 5,100  Level Seattle Center
Sat 05:56:15 PM 45.6653 -122.9764 170° South 78 90 5,100  Level Seattle Center
Sat 05:56:46 PM 45.6556 -122.9714 160° South 75 86 5,100  Level Seattle Center
Sat 05:57:16 PM 45.6464 -122.9686 168° South 72 83 5,100 98 Level Seattle Center
Sat 05:57:47 PM 45.6358 -122.9628 159° South 75 86 5,200 100 Climbing Seattle Center
Sat 05:58:16 PM 45.6269 -122.9578 159° South 76 87 5,200  Level Seattle Center
Sat 05:58:48 PM 45.6156 -122.9583 182° South 75 86 5,200 -98 Level Seattle Center
Sat 05:59:17 PM 45.6039 -122.9611 189° South 77 89 5,100 -197 Descending Seattle Center
Sat 05:59:49 PM 45.5947 -122.9617 182° South 75 86 5,000 -197 Descending Seattle Center
Sat 06:00:18 PM 45.5853 -122.9653 195° South 73 84 4,900  Descending Seattle Center
Sat 06:00:50 PM 45.5747 -122.9706 199° South 72 83 5,000 200 Climbing Seattle Center
Sat 06:01:18 PM 45.5672 -122.9725 190° South 66 76 5,100 100 Climbing Seattle Center
Sat 06:01:50 PM 45.5567 -122.9758 192° South 68 78 5,100  Level Seattle Center
Sat 06:02:19 PM 45.5492 -122.9800 201° Southwest 67 77 5,100  Level Seattle Center
Sat 06:02:51 PM 45.5389 -122.9850 199° South 68 78 5,100  Level Seattle Center
Sat 06:03:19 PM 45.5306 -122.9842 176° South 68 78 5,100  Level Seattle Center
Sat 06:03:52 PM 45.5192 -122.9817 171° South 69 79 5,100 -197 Level Seattle Center
Sat 06:04:20 PM 45.5103 -122.9800 173° South 75 86 4,900 -98 Descending Seattle Center
Sat 06:04:53 PM 45.4989 -122.9797 179° South 72 83 5,000 197 Climbing Seattle Center
Sat 06:05:21 PM 45.4900 -122.9758 163° South 71 82 5,100 98 Climbing Seattle Center
Sat 06:05:54 PM 45.4800 -122.9675 150° Southeast 71 82 5,100  Level Seattle Center
Sat 06:06:21 PM 45.4719 -122.9617 153° Southeast 70 81 5,100  Level Seattle Center
Sat 06:06:54 PM 45.4633 -122.9522 142° Southeast 71 82 5,100  Level Seattle Center
Sat 06:07:22 PM 45.4558 -122.9464 151° Southeast 71 82 5,100  Level Seattle Center
Sat 06:07:55 PM 45.4475 -122.9364 140° Southeast 71 82 5,100 -100 Level Seattle Center
Sat 06:08:22 PM 45.4386 -122.9350 174° South 67 77 5,000 -98 Descending Seattle Center
Sat 06:08:56 PM 45.4294 -122.9356 182° South 69 79 5,000  Level Seattle Center
Sat 06:09:23 PM 45.4214 -122.9358 181° South 65 75 5,000 98 Level Seattle Center
Sat 06:09:57 PM 45.4117 -122.9331 169° South 67 77 5,100 98 Climbing Seattle Center
Sat 06:10:24 PM 45.4031 -122.9308 170° South 64 74 5,100 -98 Level Seattle Center
Sat 06:10:58 PM 45.3933 -122.9233 152° Southeast 66 76 5,000 -100 Descending Seattle Center
Sat 06:11:24 PM 45.3861 -122.9222 174° South 68 78 5,000  Level Seattle Center
Sat 06:11:58 PM 45.3767 -122.9150 152° Southeast 66 76 5,000 -98 Level Seattle Center
Sat 06:12:25 PM 45.3694 -122.9136 172° South 63 72 4,900 -590 Descending Seattle Center
Sat 06:12:59 PM 45.3600 -122.9069 154° Southeast 65 75 4,400 -885 Descending Seattle Center
Sat 06:13:26 PM 45.3525 -122.9050 170° South 63 72 4,000 -787 Descending Seattle Center
Sat 06:14:00 PM 45.3428 -122.9033 173° South 64 74 3,600 -700 Descending Seattle Center
Sat 06:14:26 PM 45.3353 -122.9058 193° South 60 69 3,300 -492 Descending Seattle Center
Sat 06:15:01 PM 45.3267 -122.9031 167° South 62 71 3,100 -197 Descending Seattle Center
Sat 06:15:27 PM 45.3175 -122.9036 182° South 61 70 3,100 197 Level Seattle Center
Sat 06:16:02 PM 45.3108 -122.9014 167° South 59 68 3,300 197 Climbing Seattle Center
Sat 06:16:28 PM 45.3044 -122.9028 189° South 54 62 3,300 -300 Level Seattle Center
Sat 06:17:02 PM 45.3000 -122.9128 238° Southwest 55 63 3,000 -253 Descending Seattle Center
Sat 06:18:03 PM 45.2986 -122.9394 266° West 56 64 2,900 -98 Descending Seattle Center

Login

Don't have an account? Register now (free) for customized features, flight alerts, and more!